createdAt,value
2019-03-22T00:01:23.716Z,14.73
2019-03-22T00:03:53.343Z,16.00
2019-03-22T00:06:23.039Z,15.43
2019-03-22T00:08:52.877Z,15.70
2019-03-22T00:11:22.458Z,14.13
2019-03-22T00:13:52.246Z,15.67
2019-03-22T00:16:21.893Z,20.00
2019-03-22T00:18:51.541Z,15.10
2019-03-22T00:21:21.097Z,17.97
2019-03-22T00:23:50.940Z,17.30
2019-03-22T00:26:21.050Z,19.03
2019-03-22T00:28:50.899Z,14.13
2019-03-22T00:31:20.735Z,14.93
2019-03-22T00:33:50.349Z,14.27
2019-03-22T00:36:20.135Z,12.93
2019-03-22T00:38:49.808Z,16.70
2019-03-22T00:41:19.685Z,12.47
2019-03-22T00:43:49.512Z,17.43
2019-03-22T00:46:19.141Z,17.23
2019-03-22T00:48:49.059Z,18.27
2019-03-22T00:51:19.132Z,14.53
2019-03-22T00:53:49.015Z,16.70
2019-03-22T00:56:18.654Z,13.73
2019-03-22T00:58:48.410Z,12.27
2019-03-22T01:01:18.169Z,15.20
2019-03-22T01:03:47.803Z,15.50
2019-03-22T01:06:17.686Z,14.07
2019-03-22T01:08:47.601Z,18.20
2019-03-22T01:11:17.172Z,12.47
2019-03-22T01:13:47.125Z,13.70
2019-03-22T01:16:17.206Z,14.43
2019-03-22T01:18:47.036Z,14.63
2019-03-22T01:21:16.845Z,12.47
2019-03-22T01:23:46.474Z,16.27
2019-03-22T01:26:16.171Z,14.37
2019-03-22T01:28:45.805Z,14.33
2019-03-22T01:31:15.533Z,14.10
2019-03-22T01:33:45.262Z,15.07
2019-03-22T01:36:15.259Z,12.20
2019-03-22T01:38:45.091Z,15.20
2019-03-22T01:41:14.819Z,14.03
2019-03-22T01:43:44.709Z,17.33
2019-03-22T01:46:14.368Z,12.37
2019-03-22T01:48:43.982Z,18.90
2019-03-22T01:51:13.757Z,15.83
2019-03-22T01:53:44.011Z,12.30
2019-03-22T01:56:13.819Z,13.03
2019-03-22T01:58:43.415Z,19.43
2019-03-22T02:01:13.258Z,11.13
2019-03-22T02:03:43.288Z,15.77
2019-03-22T02:06:12.940Z,14.83
2019-03-22T02:08:42.696Z,14.63
2019-03-22T02:11:12.386Z,14.53
2019-03-22T02:13:42.326Z,15.00
2019-03-22T02:16:12.314Z,13.13
2019-03-22T02:18:41.979Z,11.27
2019-03-22T02:21:12.102Z,16.60
2019-03-22T02:23:42.597Z,13.43
2019-03-22T02:26:12.365Z,14.23
2019-03-22T02:28:42.256Z,15.17
2019-03-22T02:31:11.901Z,10.80
2019-03-22T02:33:41.690Z,12.97
2019-03-22T02:36:11.455Z,12.80
2019-03-22T02:38:41.116Z,15.90
2019-03-22T02:41:10.866Z,14.83
2019-03-22T02:43:40.664Z,12.47
2019-03-22T02:46:10.305Z,14.80
2019-03-22T02:48:40.188Z,14.60
2019-03-22T02:51:10.260Z,12.37
2019-03-22T02:53:39.917Z,12.87
2019-03-22T02:56:10.254Z,11.73
2019-03-22T02:58:40.010Z,12.30
2019-03-22T03:01:09.969Z,13.30
2019-03-22T03:03:39.564Z,14.37
2019-03-22T03:06:09.385Z,15.07
2019-03-22T03:08:39.744Z,14.73
2019-03-22T03:11:09.360Z,14.17
2019-03-22T03:13:39.115Z,14.63
2019-03-22T03:16:09.300Z,12.93
2019-03-22T03:18:38.977Z,13.93
2019-03-22T03:21:08.755Z,15.30
2019-03-22T03:23:38.384Z,10.77
2019-03-22T03:26:08.217Z,12.83
2019-03-22T03:28:37.897Z,13.10
2019-03-22T03:31:07.580Z,16.40
2019-03-22T03:33:37.198Z,13.53
2019-03-22T03:36:07.004Z,13.10
2019-03-22T03:38:36.657Z,12.60
2019-03-22T03:41:06.828Z,11.30
2019-03-22T03:43:36.432Z,11.80
2019-03-22T03:46:06.027Z,11.60
2019-03-22T03:48:36.010Z,12.03
2019-03-22T03:51:06.063Z,11.80
2019-03-22T03:53:35.839Z,13.07
2019-03-22T03:56:05.790Z,12.97
2019-03-22T03:58:51.171Z,16.00
2019-03-22T04:01:07.305Z,12.70
2019-03-22T04:03:37.126Z,12.00
2019-03-22T04:06:06.749Z,10.57
2019-03-22T04:08:36.523Z,12.23
2019-03-22T04:11:06.213Z,16.20
2019-03-22T04:13:35.808Z,13.23
2019-03-22T04:16:06.072Z,12.23
2019-03-22T04:18:36.251Z,11.67
2019-03-22T04:21:06.436Z,12.00
2019-03-22T04:23:36.036Z,12.60
2019-03-22T04:26:05.854Z,13.80
2019-03-22T04:28:35.607Z,13.10
2019-03-22T04:31:05.346Z,15.03
2019-03-22T04:33:34.961Z,12.23
2019-03-22T04:36:04.920Z,13.13
2019-03-22T04:38:34.509Z,12.90
2019-03-22T04:41:04.201Z,13.90
2019-03-22T04:43:33.908Z,12.60
2019-03-22T04:46:03.844Z,11.50
2019-03-22T04:48:34.840Z,11.87
2019-03-22T04:51:05.421Z,12.73
2019-03-22T04:53:41.222Z,13.83
2019-03-22T04:56:13.432Z,13.97
2019-03-22T04:58:46.737Z,11.43
2019-03-22T05:01:16.058Z,12.80
2019-03-22T05:03:46.627Z,12.33
2019-03-22T05:06:17.867Z,14.50
2019-03-22T05:08:48.399Z,13.93
2019-03-22T05:11:18.603Z,11.90
2019-03-22T05:13:48.756Z,11.30
2019-03-22T05:16:19.855Z,14.80
2019-03-22T05:18:50.693Z,12.43
2019-03-22T05:21:21.825Z,11.43
2019-03-22T05:23:53.340Z,17.40
2019-03-22T05:26:24.287Z,10.93
2019-03-22T05:28:54.059Z,11.47
2019-03-22T05:31:48.217Z,11.47
2019-03-22T05:34:17.826Z,11.93
2019-03-22T05:36:47.547Z,11.90
2019-03-22T05:39:17.215Z,13.13
2019-03-22T05:41:46.832Z,11.33
2019-03-22T05:44:16.456Z,17.87
2019-03-22T05:46:48.854Z,11.00
2019-03-22T05:49:17.617Z,11.13
2019-03-22T05:51:47.236Z,10.23
2019-03-22T05:54:16.907Z,12.23
2019-03-22T05:56:46.639Z,10.40
2019-03-22T05:59:16.336Z,14.83
2019-03-22T06:01:46.035Z,9.57
2019-03-22T06:04:15.830Z,11.73
2019-03-22T06:06:45.443Z,13.60
2019-03-22T06:09:15.278Z,11.60
2019-03-22T06:11:45.005Z,13.53
2019-03-22T06:14:14.840Z,19.13
2019-03-22T06:16:44.437Z,13.50
2019-03-22T06:19:14.270Z,12.17
2019-03-22T06:21:44.122Z,11.43
2019-03-22T06:24:13.982Z,12.80
2019-03-22T06:26:43.721Z,12.43
2019-03-22T06:29:13.514Z,14.43
2019-03-22T06:31:43.520Z,18.73
2019-03-22T06:34:13.350Z,11.30
2019-03-22T06:36:42.959Z,11.13
2019-03-22T06:39:12.755Z,11.57
2019-03-22T06:41:42.801Z,11.70
2019-03-22T06:44:12.616Z,13.03
2019-03-22T06:46:42.524Z,12.20
2019-03-22T06:49:12.132Z,13.80
2019-03-22T06:51:41.879Z,13.50
2019-03-22T06:54:11.470Z,15.20
2019-03-22T06:56:41.173Z,13.07
2019-03-22T06:59:10.834Z,12.50
2019-03-22T07:01:40.581Z,18.70
2019-03-22T07:04:10.368Z,20.50
2019-03-22T07:06:40.016Z,12.90
2019-03-22T07:09:10.420Z,12.90
2019-03-22T07:11:41.986Z,13.23
2019-03-22T07:14:11.827Z,12.13
2019-03-22T07:16:41.445Z,16.70
2019-03-22T07:19:11.323Z,12.53
2019-03-22T07:21:41.037Z,15.20
2019-03-22T07:24:10.951Z,13.70
2019-03-22T07:26:41.234Z,14.63
2019-03-22T07:29:11.054Z,13.87
2019-03-22T07:31:41.050Z,15.20
2019-03-22T07:34:10.768Z,13.70
2019-03-22T07:36:40.433Z,14.90
2019-03-22T07:39:10.489Z,11.47
2019-03-22T07:41:40.293Z,12.37
2019-03-22T07:44:10.124Z,13.13
2019-03-22T07:46:39.791Z,15.80
2019-03-22T07:49:09.854Z,11.90
2019-03-22T07:51:39.653Z,13.70
2019-03-22T07:54:09.286Z,16.00
2019-03-22T07:56:39.676Z,11.10
2019-03-22T07:59:10.051Z,16.17
2019-03-22T08:01:39.707Z,12.13
2019-03-22T08:04:09.349Z,12.13
2019-03-22T08:06:39.089Z,14.20
2019-03-22T08:09:12.340Z,14.00
2019-03-22T08:11:42.364Z,14.77
2019-03-22T08:14:12.004Z,15.13
2019-03-22T08:16:41.619Z,16.60
2019-03-22T08:19:11.264Z,15.57
2019-03-22T08:21:41.028Z,17.33
2019-03-22T08:24:10.907Z,11.33
2019-03-22T08:26:40.509Z,13.40
2019-03-22T08:29:10.194Z,14.83
2019-03-22T08:31:39.966Z,14.27
2019-03-22T08:34:09.803Z,16.33
2019-03-22T08:36:39.713Z,15.33
2019-03-22T08:39:10.728Z,11.67
2019-03-22T08:41:40.354Z,14.63
2019-03-22T08:44:10.416Z,15.10
2019-03-22T08:46:40.149Z,13.23
2019-03-22T08:49:10.099Z,13.80
2019-03-22T08:51:39.749Z,14.80
2019-03-22T08:54:09.609Z,13.03
2019-03-22T08:56:39.965Z,14.60
2019-03-22T08:59:09.859Z,15.07
2019-03-22T09:01:39.798Z,14.27
2019-03-22T09:04:09.426Z,11.57
2019-03-22T09:06:39.704Z,15.33
2019-03-22T09:09:09.629Z,12.17
2019-03-22T09:11:39.553Z,12.43
2019-03-22T09:14:09.251Z,16.13
2019-03-22T09:16:39.523Z,15.27
2019-03-22T09:19:09.298Z,14.80
2019-03-22T09:21:39.040Z,13.20
2019-03-22T09:24:09.206Z,14.83
2019-03-22T09:26:47.598Z,12.77
2019-03-22T09:29:10.658Z,14.33
2019-03-22T09:31:40.956Z,17.33
2019-03-22T09:34:10.540Z,20.27
2019-03-22T09:36:40.399Z,17.87
2019-03-22T09:39:10.071Z,16.80
2019-03-22T09:41:39.961Z,16.60
2019-03-22T09:44:09.631Z,16.97
2019-03-22T09:46:39.786Z,15.80
2019-03-22T09:49:09.375Z,15.37
2019-03-22T09:51:39.413Z,20.40
2019-03-22T09:54:09.577Z,14.90
2019-03-22T09:56:47.074Z,18.33
2019-03-22T09:59:11.127Z,16.20
2019-03-22T10:01:40.815Z,16.50
2019-03-22T10:04:10.643Z,17.10
2019-03-22T10:06:40.638Z,15.13
2019-03-22T10:09:10.428Z,17.70
2019-03-22T10:11:40.185Z,17.70
2019-03-22T10:14:10.070Z,19.77
2019-03-22T10:16:39.695Z,16.90
2019-03-22T10:19:09.597Z,14.67
2019-03-22T10:21:39.346Z,15.53
2019-03-22T10:24:09.144Z,17.07
2019-03-22T10:26:38.979Z,19.30
2019-03-22T10:29:08.606Z,16.00
2019-03-22T10:31:38.859Z,17.80
2019-03-22T10:34:08.456Z,18.50
2019-03-22T10:36:39.463Z,19.20
2019-03-22T10:39:11.232Z,19.00
2019-03-22T10:41:41.406Z,18.63
2019-03-22T10:44:11.547Z,18.70
2019-03-22T10:46:41.149Z,16.77
2019-03-22T10:49:11.137Z,18.47
2019-03-22T10:51:40.756Z,17.87
2019-03-22T10:54:10.451Z,22.87
2019-03-22T10:56:40.225Z,21.70
2019-03-22T10:59:10.075Z,18.43
2019-03-22T11:01:48.548Z,18.23
2019-03-22T11:04:11.365Z,21.50
2019-03-22T11:06:42.309Z,19.00
2019-03-22T11:09:11.948Z,20.40
2019-03-22T11:11:41.740Z,21.37
2019-03-22T11:14:11.851Z,18.50
2019-03-22T11:16:42.145Z,21.27
2019-03-22T11:19:12.253Z,22.60
2019-03-22T11:21:42.031Z,19.00
2019-03-22T11:24:11.989Z,19.50
2019-03-22T11:26:41.917Z,18.97
2019-03-22T11:29:12.065Z,21.40
2019-03-22T11:31:41.882Z,19.73
2019-03-22T11:34:11.870Z,22.07
2019-03-22T11:36:41.824Z,20.77
2019-03-22T11:39:15.831Z,24.00
2019-03-22T11:41:44.084Z,18.63
2019-03-22T11:44:13.821Z,22.30
2019-03-22T11:46:43.721Z,22.60
2019-03-22T11:49:13.708Z,22.37
2019-03-22T11:51:43.482Z,19.70
2019-03-22T11:54:13.195Z,20.10
2019-03-22T11:56:42.807Z,22.30
2019-03-22T11:59:12.651Z,19.63
2019-03-22T12:01:42.449Z,16.70
2019-03-22T12:04:12.210Z,20.10
2019-03-22T12:06:42.123Z,18.57
2019-03-22T12:09:12.289Z,21.47
2019-03-22T12:11:42.235Z,18.60
2019-03-22T12:14:12.271Z,20.07
2019-03-22T12:16:42.089Z,21.13
2019-03-22T12:19:12.024Z,19.63
2019-03-22T12:21:41.989Z,19.40
2019-03-22T12:24:11.737Z,21.80
2019-03-22T12:26:41.408Z,21.47
2019-03-22T12:29:11.081Z,24.50
2019-03-22T12:31:40.724Z,21.30
2019-03-22T12:34:10.824Z,22.13
2019-03-22T12:36:40.600Z,21.90
2019-03-22T12:39:10.873Z,22.23
2019-03-22T12:41:40.715Z,17.47
2019-03-22T12:44:10.602Z,19.87
2019-03-22T12:46:40.461Z,20.10
2019-03-22T12:49:10.022Z,18.27
2019-03-22T12:51:40.171Z,17.77
2019-03-22T12:54:09.999Z,20.07
2019-03-22T12:56:39.813Z,20.63
2019-03-22T12:59:09.577Z,19.50
2019-03-22T13:01:39.202Z,20.57
2019-03-22T13:04:08.920Z,16.67
2019-03-22T13:06:38.590Z,17.97
2019-03-22T13:09:09.413Z,18.47
2019-03-22T13:11:39.088Z,20.43
2019-03-22T13:14:08.785Z,16.33
2019-03-22T13:16:38.537Z,17.87
2019-03-22T13:19:08.579Z,16.67
2019-03-22T13:21:38.226Z,15.77
2019-03-22T13:24:08.118Z,19.00
2019-03-22T13:26:37.796Z,17.00
2019-03-22T13:29:07.417Z,17.63
2019-03-22T13:31:37.228Z,17.70
2019-03-22T13:34:06.864Z,20.03
2019-03-22T13:36:36.500Z,17.60
2019-03-22T13:39:08.687Z,14.93
2019-03-22T13:41:38.311Z,19.27
2019-03-22T13:44:08.129Z,18.00
2019-03-22T13:46:40.420Z,14.40
2019-03-22T13:49:10.443Z,15.77
2019-03-22T13:51:40.358Z,17.60
2019-03-22T13:54:10.016Z,19.27
2019-03-22T13:56:39.675Z,18.17
2019-03-22T13:59:09.299Z,21.83
2019-03-22T14:01:38.903Z,16.97
2019-03-22T14:04:08.790Z,18.10
2019-03-22T14:06:38.931Z,18.30
2019-03-22T14:09:09.329Z,14.43
2019-03-22T14:11:38.969Z,13.47
2019-03-22T14:14:09.319Z,15.50
2019-03-22T14:16:39.304Z,15.90
2019-03-22T14:19:09.318Z,17.87
2019-03-22T14:21:39.149Z,19.50
2019-03-22T14:24:08.793Z,17.60
2019-03-22T14:26:38.546Z,18.33
2019-03-22T14:29:08.395Z,16.33
2019-03-22T14:31:38.849Z,17.33
2019-03-22T14:34:09.063Z,18.70
2019-03-22T14:36:39.984Z,20.77
2019-03-22T14:39:10.100Z,17.40
2019-03-22T14:41:40.141Z,16.27
2019-03-22T14:44:10.224Z,14.30
2019-03-22T14:46:40.334Z,17.53
2019-03-22T14:49:11.507Z,14.63
2019-03-22T14:51:47.745Z,15.90
2019-03-22T14:54:23.461Z,15.67
2019-03-22T14:56:53.779Z,13.83
2019-03-22T14:59:23.592Z,16.10
2019-03-22T15:01:53.467Z,17.73
2019-03-22T15:04:23.217Z,15.37
2019-03-22T15:06:53.021Z,15.17
2019-03-22T15:09:22.872Z,17.70
2019-03-22T15:11:52.778Z,14.67
2019-03-22T15:14:35.738Z,14.60
2019-03-22T15:17:23.263Z,17.03
2019-03-22T15:20:15.234Z,15.83
2019-03-22T15:23:13.557Z,15.30
2019-03-22T15:26:00.772Z,14.03
2019-03-22T15:28:52.615Z,14.27
2019-03-22T15:31:41.667Z,14.50
2019-03-22T15:34:29.466Z,14.47
2019-03-22T15:37:18.192Z,15.47
2019-03-22T15:39:59.276Z,13.60
2019-03-22T15:42:28.988Z,17.83
2019-03-22T15:44:58.912Z,15.20
2019-03-22T15:47:28.845Z,13.60
2019-03-22T15:49:58.902Z,16.13
2019-03-22T15:52:29.153Z,13.73
2019-03-22T15:54:58.973Z,13.20
2019-03-22T15:57:29.002Z,14.03
2019-03-22T15:59:59.396Z,15.23
2019-03-22T16:02:29.361Z,13.97
2019-03-22T16:04:59.055Z,16.83
2019-03-22T16:07:29.309Z,15.90
2019-03-22T16:10:01.497Z,15.17
2019-03-22T16:12:31.119Z,15.50
2019-03-22T16:15:00.944Z,12.27
2019-03-22T16:17:31.070Z,16.40
2019-03-22T16:20:00.890Z,12.87
2019-03-22T16:22:30.679Z,11.43
2019-03-22T16:25:00.712Z,12.87
2019-03-22T16:27:30.879Z,12.57
2019-03-22T16:30:00.676Z,10.60
2019-03-22T16:32:30.383Z,11.30
2019-03-22T16:35:00.050Z,10.27
2019-03-22T16:37:29.858Z,9.77
2019-03-22T16:39:59.832Z,9.63
2019-03-22T16:42:29.731Z,10.77
2019-03-22T16:45:00.024Z,8.70
2019-03-22T16:47:29.994Z,8.30
2019-03-22T16:49:59.755Z,11.83
2019-03-22T16:52:29.579Z,8.37
2019-03-22T16:54:59.362Z,8.97
2019-03-22T16:57:29.680Z,12.07
2019-03-22T16:59:59.574Z,10.13
2019-03-22T17:02:29.722Z,9.78
2019-03-22T17:04:59.348Z,15.53
2019-03-22T17:07:29.154Z,11.33
2019-03-22T17:09:58.958Z,10.57
2019-03-22T17:12:28.876Z,13.17
2019-03-22T17:14:58.494Z,10.10
2019-03-22T17:17:28.124Z,12.77
2019-03-22T17:19:57.754Z,17.07
2019-03-22T17:22:27.846Z,11.40
2019-03-22T17:24:58.382Z,19.20
2019-03-22T17:27:28.223Z,44.70
2019-03-22T17:29:58.237Z,30.00
2019-03-22T17:32:28.088Z,27.73
2019-03-22T17:34:57.817Z,27.50
2019-03-22T17:37:27.648Z,21.47
2019-03-22T17:39:57.774Z,23.30
2019-03-22T17:42:27.962Z,19.23
2019-03-22T17:44:57.786Z,26.37
2019-03-22T17:47:27.915Z,26.13
2019-03-22T17:49:57.828Z,23.50
2019-03-22T17:52:27.868Z,24.70
2019-03-22T17:54:57.550Z,25.77
2019-03-22T17:57:27.871Z,24.50
2019-03-22T17:59:57.881Z,19.77
2019-03-22T18:02:27.682Z,18.83
2019-03-22T18:04:57.841Z,23.00
2019-03-22T18:07:28.011Z,14.70
2019-03-22T18:09:57.866Z,15.20
2019-03-22T18:12:27.649Z,24.40
2019-03-22T18:14:57.306Z,17.13
2019-03-22T18:17:27.000Z,16.20
2019-03-22T18:19:57.098Z,14.73
2019-03-22T18:22:27.042Z,15.90
2019-03-22T18:24:57.076Z,20.97
2019-03-22T18:27:26.829Z,21.63
2019-03-22T18:29:56.444Z,17.33
2019-03-22T18:32:28.161Z,19.07
2019-03-22T18:34:58.315Z,18.60
2019-03-22T18:37:27.905Z,17.60
2019-03-22T18:39:57.639Z,22.40
2019-03-22T18:42:27.783Z,25.90
2019-03-22T18:45:02.636Z,19.33
2019-03-22T18:47:32.740Z,24.00
2019-03-22T18:50:02.459Z,23.07
2019-03-22T18:52:32.299Z,21.53
2019-03-22T18:55:02.020Z,16.57
2019-03-22T18:57:31.996Z,17.60
2019-03-22T19:00:02.132Z,17.53
2019-03-22T19:02:32.418Z,46.63
2019-03-22T19:05:02.087Z,71.70
2019-03-22T19:07:31.790Z,23.40
2019-03-22T19:10:02.024Z,22.30
2019-03-22T19:12:32.233Z,22.40
2019-03-22T19:15:02.370Z,16.83
2019-03-22T19:17:32.740Z,22.37
2019-03-22T19:20:02.570Z,25.63
2019-03-22T19:22:32.948Z,24.20
2019-03-22T19:25:02.626Z,26.10
2019-03-22T19:27:33.004Z,24.30
2019-03-22T19:30:03.039Z,27.00
2019-03-22T19:32:33.796Z,27.53
2019-03-22T19:35:04.066Z,25.67
2019-03-22T19:37:34.074Z,24.33
2019-03-22T19:40:03.973Z,28.17
2019-03-22T19:42:34.614Z,20.97
2019-03-22T19:45:04.747Z,24.10
2019-03-22T19:47:34.850Z,19.93
2019-03-22T19:50:05.222Z,23.53
2019-03-22T19:52:35.122Z,29.53
2019-03-22T19:55:05.833Z,22.77
2019-03-22T19:57:35.978Z,23.63
2019-03-22T20:00:06.865Z,24.27
2019-03-22T20:02:37.633Z,22.50
2019-03-22T20:05:08.254Z,22.43
2019-03-22T20:07:38.531Z,22.43
2019-03-22T20:10:09.684Z,26.73
2019-03-22T20:12:39.624Z,29.27
2019-03-22T20:15:09.948Z,30.17
2019-03-22T20:17:40.315Z,22.93
2019-03-22T20:20:10.459Z,22.20
2019-03-22T20:22:40.608Z,26.50
2019-03-22T20:25:10.723Z,24.97
2019-03-22T20:27:40.534Z,25.77
2019-03-22T20:30:10.760Z,24.97
2019-03-22T20:32:40.428Z,27.00
2019-03-22T20:35:16.414Z,28.50
2019-03-22T20:37:41.831Z,24.00
2019-03-22T20:40:11.666Z,26.70
2019-03-22T20:42:41.335Z,29.87
2019-03-22T20:45:11.305Z,30.33
2019-03-22T20:47:41.248Z,28.83
2019-03-22T20:50:11.184Z,25.67
2019-03-22T20:52:41.042Z,27.07
2019-03-22T20:55:11.402Z,28.17
2019-03-22T20:57:41.015Z,27.77
2019-03-22T21:00:11.838Z,33.53
2019-03-22T21:02:41.536Z,26.87
2019-03-22T21:05:12.412Z,24.83
2019-03-22T21:07:42.220Z,25.73
2019-03-22T21:10:12.337Z,25.80
2019-03-22T21:12:42.629Z,25.83
2019-03-22T21:15:23.504Z,23.50
2019-03-22T21:17:44.197Z,25.60
2019-03-22T21:20:14.102Z,31.90
2019-03-22T21:22:44.311Z,26.07
2019-03-22T21:25:14.163Z,27.93
2019-03-22T21:27:43.982Z,29.00
2019-03-22T21:30:14.539Z,33.67
2019-03-22T21:32:45.804Z,29.97
2019-03-22T21:35:22.531Z,27.73
2019-03-22T21:37:47.114Z,24.53
2019-03-22T21:40:17.157Z,27.40
2019-03-22T21:42:46.967Z,26.07
2019-03-22T21:45:16.766Z,32.10
2019-03-22T21:47:46.831Z,27.47
2019-03-22T21:50:16.597Z,27.23
2019-03-22T21:52:46.413Z,31.10
2019-03-22T21:55:16.192Z,27.77
2019-03-22T21:57:45.806Z,26.73
2019-03-22T22:00:15.564Z,25.90
2019-03-22T22:02:45.250Z,28.10
2019-03-22T22:05:15.296Z,30.63
2019-03-22T22:07:44.982Z,30.77
2019-03-22T22:10:14.703Z,26.23
2019-03-22T22:12:44.417Z,23.13
2019-03-22T22:15:14.636Z,29.93
2019-03-22T22:17:44.770Z,22.27
2019-03-22T22:20:15.090Z,26.13
2019-03-22T22:22:45.180Z,23.60
2019-03-22T22:25:15.116Z,23.40
2019-03-22T22:27:45.246Z,21.50
2019-03-22T22:30:15.138Z,28.10
2019-03-22T22:32:45.008Z,20.27
2019-03-22T22:35:14.806Z,26.40
2019-03-22T22:37:44.910Z,23.10
2019-03-22T22:40:14.640Z,24.30
2019-03-22T22:42:44.566Z,28.53
2019-03-22T22:45:14.316Z,24.17
2019-03-22T22:47:43.943Z,26.27
2019-03-22T22:50:13.799Z,27.80
2019-03-22T22:52:43.580Z,24.03
2019-03-22T22:55:13.319Z,21.17
2019-03-22T22:57:43.055Z,26.17
2019-03-22T23:00:15.985Z,23.47
2019-03-22T23:02:46.671Z,24.07
2019-03-22T23:05:16.655Z,22.40
2019-03-22T23:07:46.923Z,19.53
2019-03-22T23:10:16.553Z,22.70
2019-03-22T23:12:46.296Z,25.20
2019-03-22T23:15:16.124Z,24.27
2019-03-22T23:17:45.762Z,23.07
2019-03-22T23:20:15.466Z,23.97
2019-03-22T23:22:45.420Z,22.17
2019-03-22T23:25:15.355Z,24.90
2019-03-22T23:27:45.044Z,25.90
2019-03-22T23:30:14.726Z,22.47
2019-03-22T23:32:44.811Z,26.20
2019-03-22T23:35:14.611Z,20.57
2019-03-22T23:37:44.319Z,23.90
2019-03-22T23:40:14.080Z,25.47
2019-03-22T23:42:43.722Z,28.73
2019-03-22T23:45:13.367Z,22.60
2019-03-22T23:47:43.167Z,27.00
2019-03-22T23:50:12.991Z,22.30
2019-03-22T23:52:42.608Z,22.53
2019-03-22T23:55:12.630Z,22.97
2019-03-22T23:57:42.969Z,23.77
